Skip Navigation Links
NOAA logo - Click to go to the NOAA homepage
NOAA's National Weather Service
Alaska Aviation Weather Unit
  NWS logo - Click to go to the NWS homepage
Left Navbar Graphic     23 AKDT = 07 GMT

   
NOAA is celebrating 200 years of science, service, and stewardship. Visit the NOAA 200th celebration Web site to learn more.
USA.gov is the U.S. Government's official Web portal to all Federal, state and local government Web resources and services.
Facebook
NWS on Facebook

Important Change Regarding the AAWU Web Presence

 

Over the last several months, the AAWU has been working to navigate its webpages to a nationally supported server. Security, as well as other needs, have necessitated the change.  In the process, we have made an effort to enhance the functionality of our website, as well as some of our products. As of June 20, 2017, aawu.arh.noaa.gov will be discontinued. The new AAWU web address is weather.gov/aawu. It is now live and will run in-parallel with the old site until it is discontinued. Please send any feedback or questions regarding the new webpages to nws.ar.aawu.webauthors@noaa.gov.  Thank you for your patience during this time of transition.
AAWU Home :: Display TAF Add Bookmark
METAR PAMY 240156Z AUTO 07007KT 10SM -RA OVC012 06/04 A2969 RMK AO2
     SLP056 P0002 T00560039=

SPECI PAMY 240229Z AUTO 21007KT 10SM -RA SCT012 BKN020 OVC027 06/03
     A2968 RMK AO2 P0000=

METAR PAMY 240256Z AUTO 28006KT 10SM -RA FEW012 BKN020 OVC030 06/04
     A2968 RMK AO2 SLP052 P0000 60002 T00560039 58019=

PAMY 240356Z AUTO 30010KT 10SM -RA FEW013 BKN021 OVC029 05/03
     A2967 RMK AO2 SLP048 P0001 T00500033=

SPECI PAMY 240419Z AUTO 31007KT 6SM -RA BR BKN013 OVC019 04/03 A2966 RMK
     AO2 P0000=

SPECI PAMY 240427Z AUTO 33007KT 8SM -RA OVC017 04/03 A2966 RMK AO2
     P0000=

METAR PAMY 240456Z AUTO 32004KT 8SM -RA OVC023 04/02 A2965 RMK AO2
     SLP044 P0001 T00390022=

SPECI PAMY 240531Z AUTO 26005KT 10SM -RA OVC031 04/02 A2964 RMK AO2
     P0000=

METAR PAMY 240556Z AUTO 26005KT 10SM SCT025 BKN033 OVC040 04/02 A2964
     RMK AO2 RAE42 SLP039 P0000 60004 T00390022 10061 20033
     58013=

SPECI PAMY 240608Z AUTO 26006KT 10SM BKN023 BKN033 OVC040 04/02 A2963
     RMK AO2=

SPECI PAMY 240637Z AUTO 25006KT 10SM FEW023 BKN031 OVC035 04/02 A2964
     RMK AO2 RAB11E33 P0000=


NOAA's National Weather Service
Alaska Aviation Weather Unit
6930 Sand Lake Road
Anchorage, AK 99502-1845
Disclaimer
Credits
Glossary
Privacy Policy
About Us
Career Opportunities
Contact AAWU Internet Services Site last modified: April, 17th 2012